createdAt,value
2018-12-30T00:01:21.511Z,96541.16
2018-12-30T00:03:54.142Z,96529.22
2018-12-30T00:06:23.854Z,96535.88
2018-12-30T00:08:53.693Z,96534.43
2018-12-30T00:11:23.135Z,96525.99
2018-12-30T00:13:52.568Z,96532.87
2018-12-30T00:16:22.002Z,96536.44
2018-12-30T00:18:51.496Z,96536.11
2018-12-30T00:21:20.948Z,96539.72
2018-12-30T00:23:52.895Z,96537.19
2018-12-30T00:26:21.546Z,96534.92
2018-12-30T00:28:51.010Z,96537.83
2018-12-30T00:31:20.546Z,96535.07
2018-12-30T00:33:49.989Z,96541.99
2018-12-30T00:36:19.439Z,96549.38
2018-12-30T00:38:48.870Z,96551.43
2018-12-30T00:41:18.338Z,96541.11
2018-12-30T00:43:48.243Z,96548.03
2018-12-30T00:46:17.687Z,96570.52
2018-12-30T00:48:47.132Z,96556.36
2018-12-30T00:51:17.158Z,96559.12
2018-12-30T00:53:46.982Z,96564.20
2018-12-30T00:56:16.811Z,96571.09
2018-12-30T00:58:46.243Z,96549.98
2018-12-30T01:01:15.704Z,96567.02
2018-12-30T01:03:47.060Z,96572.56
2018-12-30T01:06:16.308Z,96567.08
2018-12-30T01:08:45.744Z,96582.83
2018-12-30T01:11:15.181Z,96594.28
2018-12-30T01:13:44.618Z,96584.30
2018-12-30T01:16:33.391Z,96590.14
2018-12-30T01:19:23.879Z,96575.98
2018-12-30T01:22:12.661Z,96579.06
2018-12-30T01:24:54.598Z,96597.03
2018-12-30T01:27:43.375Z,96578.31
2018-12-30T01:30:32.184Z,96520.28
2018-12-30T01:33:20.951Z,96584.60
2018-12-30T01:36:09.732Z,96502.02
2018-12-30T01:38:58.575Z,96583.96
2018-12-30T01:41:47.357Z,96582.34
2018-12-30T01:44:36.121Z,96545.66
2018-12-30T01:47:43.924Z,96586.91
2018-12-30T01:50:32.728Z,96586.22
2018-12-30T01:53:21.499Z,96589.16
2018-12-30T01:56:10.290Z,96572.66
2018-12-30T01:58:59.061Z,96575.67
2018-12-30T02:01:47.867Z,96584.67
2018-12-30T02:04:36.634Z,96585.55
2018-12-30T02:07:18.637Z,96570.14
2018-12-30T02:13:15.182Z,96585.80
2018-12-30T02:19:00.370Z,96581.89
2018-12-30T02:21:49.147Z,96568.73
2018-12-30T02:24:37.920Z,96554.16
2018-12-30T02:27:26.708Z,96553.59
2018-12-30T02:30:15.846Z,96580.00
2018-12-30T02:35:58.942Z,96570.89
2018-12-30T02:38:47.712Z,96557.03
2018-12-30T02:41:36.490Z,96531.61
2018-12-30T02:44:25.272Z,96530.78
2018-12-30T02:47:14.026Z,96517.41
2018-12-30T02:53:31.203Z,96570.91
2018-12-30T02:56:19.983Z,96570.96
2018-12-30T02:59:01.682Z,96544.30
2018-12-30T03:01:50.473Z,96474.00
2018-12-30T03:04:39.246Z,96566.31
2018-12-30T03:07:08.687Z,96557.00
2018-12-30T03:09:57.477Z,96574.00
2018-12-30T03:12:46.386Z,96546.64
2018-12-30T03:15:35.102Z,96501.14
2018-12-30T03:18:23.884Z,96559.14
2018-12-30T03:20:53.316Z,96565.56
2018-12-30T03:23:22.776Z,96551.04
2018-12-30T03:26:11.553Z,96558.19
2018-12-30T03:29:00.316Z,96551.54
2018-12-30T03:31:49.102Z,96554.18
2018-12-30T03:34:37.926Z,96564.97
2018-12-30T03:37:26.765Z,96551.59
2018-12-30T03:40:15.549Z,96554.60
2018-12-30T03:43:04.324Z,96559.95
2018-12-30T03:45:53.086Z,96558.97
2018-12-30T03:48:41.891Z,96554.62
2018-12-30T03:51:30.656Z,96558.91
2018-12-30T03:54:19.434Z,96556.56
2018-12-30T03:57:08.202Z,96564.78
2018-12-30T03:59:50.053Z,96530.80
2018-12-30T04:02:38.898Z,96555.30
2018-12-30T04:05:27.677Z,96559.25
2018-12-30T04:08:16.457Z,96492.41
2018-12-30T04:11:05.250Z,96567.42
2018-12-30T04:13:54.036Z,96484.78
2018-12-30T04:16:42.817Z,96509.36
2018-12-30T04:19:31.590Z,96577.88
2018-12-30T04:22:20.359Z,96574.94
2018-12-30T04:25:09.131Z,96534.18
2018-12-30T04:27:57.910Z,96511.23
2018-12-30T04:30:46.675Z,96589.64
2018-12-30T04:33:35.466Z,96587.08
2018-12-30T04:36:24.230Z,96580.42
2018-12-30T04:39:13.013Z,96600.70
2018-12-30T04:42:01.774Z,96579.30
2018-12-30T04:44:50.554Z,96537.05
2018-12-30T04:47:39.319Z,96566.87
2018-12-30T04:50:28.104Z,96577.44
2018-12-30T04:53:16.872Z,96588.04
2018-12-30T04:56:05.642Z,96574.47
2018-12-30T05:01:48.747Z,96568.59
2018-12-30T05:04:37.525Z,96603.88
2018-12-30T05:07:26.294Z,96595.33
2018-12-30T05:10:08.189Z,96608.19
2018-12-30T05:12:56.947Z,96606.17
2018-12-30T05:15:45.729Z,96607.20
2018-12-30T05:18:34.524Z,96584.95
2018-12-30T05:21:23.289Z,96590.97
2018-12-30T05:24:12.712Z,96601.78
2018-12-30T05:26:42.751Z,96621.81
2018-12-30T05:29:12.252Z,96616.31
2018-12-30T05:31:41.723Z,96612.23
2018-12-30T05:34:11.252Z,96614.32
2018-12-30T05:36:40.826Z,96617.27
2018-12-30T05:39:10.353Z,96600.48
2018-12-30T05:41:39.879Z,96610.61
2018-12-30T05:44:09.350Z,96628.67
2018-12-30T05:46:38.830Z,96614.16
2018-12-30T05:49:09.530Z,96627.68
2018-12-30T05:51:38.981Z,96624.07
2018-12-30T05:54:09.790Z,96622.31
2018-12-30T05:56:39.244Z,96623.97
2018-12-30T05:59:09.304Z,96641.38
2018-12-30T06:01:39.410Z,96635.75
2018-12-30T06:04:09.431Z,96631.60
2018-12-30T06:06:39.432Z,96626.88
2018-12-30T06:09:10.107Z,96639.86
2018-12-30T06:11:39.894Z,96627.80
2018-12-30T06:14:11.242Z,96646.23
2018-12-30T06:16:40.760Z,96641.82
2018-12-30T06:19:10.291Z,96634.32
2018-12-30T06:21:39.798Z,96655.80
2018-12-30T06:24:09.311Z,96655.27
2018-12-30T06:26:38.754Z,96650.22
2018-12-30T06:29:08.239Z,96668.22
2018-12-30T06:31:37.866Z,96674.81
2018-12-30T06:34:08.672Z,96669.45
2018-12-30T06:36:38.109Z,96673.15
2018-12-30T06:39:08.093Z,96678.77
2018-12-30T06:41:37.939Z,96683.92
2018-12-30T06:44:07.347Z,96685.55
2018-12-30T06:46:36.835Z,96685.73
2018-12-30T06:49:07.724Z,96692.60
2018-12-30T06:51:37.264Z,96690.27
2018-12-30T06:54:07.435Z,96686.20
2018-12-30T06:56:36.960Z,96693.24
2018-12-30T06:59:06.445Z,96697.47
2018-12-30T07:01:36.391Z,96701.39
2018-12-30T07:04:06.082Z,96722.66
2018-12-30T07:06:35.567Z,96717.68
2018-12-30T07:09:06.043Z,96717.22
2018-12-30T07:11:35.565Z,96717.00
2018-12-30T07:14:05.422Z,96725.91
2018-12-30T07:16:34.963Z,96724.44
2018-12-30T07:19:04.476Z,96748.91
2018-12-30T07:21:34.001Z,96732.61
2018-12-30T07:24:03.473Z,96732.88
2018-12-30T07:26:32.931Z,96740.77
2018-12-30T07:29:02.480Z,96738.80
2018-12-30T07:31:31.952Z,96751.81
2018-12-30T07:34:01.421Z,96764.06
2018-12-30T07:36:32.510Z,96757.50
2018-12-30T07:39:01.977Z,96747.25
2018-12-30T07:41:31.476Z,96753.92
2018-12-30T07:44:00.943Z,96748.91
2018-12-30T07:46:30.823Z,96759.84
2018-12-30T07:49:00.365Z,96748.08
2018-12-30T07:51:29.842Z,96752.91
2018-12-30T07:53:59.304Z,96755.59
2018-12-30T07:56:28.853Z,96759.92
2018-12-30T07:59:00.238Z,96762.11
2018-12-30T08:01:30.086Z,96764.75
2018-12-30T08:03:59.641Z,96770.10
2018-12-30T08:06:29.079Z,96777.54
2018-12-30T08:08:58.541Z,96784.86
2018-12-30T08:11:28.059Z,96775.87
2018-12-30T08:13:57.527Z,96783.38
2018-12-30T08:16:26.994Z,96780.97
2018-12-30T08:18:56.861Z,96780.37
2018-12-30T08:21:26.771Z,96785.42
2018-12-30T08:23:56.684Z,96784.41
2018-12-30T08:26:27.219Z,96783.77
2018-12-30T08:28:57.032Z,96796.17
2018-12-30T08:31:26.961Z,96798.17
2018-12-30T08:33:56.461Z,96789.30
2018-12-30T08:36:27.514Z,96805.08
2018-12-30T08:38:57.054Z,96804.84
2018-12-30T08:41:26.554Z,96801.18
2018-12-30T08:43:57.165Z,96809.00
2018-12-30T08:46:26.711Z,96826.13
2018-12-30T08:48:56.198Z,96805.22
2018-12-30T08:51:25.694Z,96821.38
2018-12-30T08:53:55.183Z,96818.23
2018-12-30T08:56:25.418Z,96842.28
2018-12-30T08:58:54.873Z,96826.81
2018-12-30T09:01:28.401Z,96833.14
2018-12-30T09:03:56.980Z,96843.78
2018-12-30T09:06:26.506Z,96866.92
2018-12-30T09:08:55.963Z,96846.16
2018-12-30T09:11:25.455Z,96856.16
2018-12-30T09:13:54.929Z,96863.64
2018-12-30T09:16:24.411Z,96869.42
2018-12-30T09:18:53.889Z,96869.66
2018-12-30T09:21:23.428Z,96873.28
2018-12-30T09:23:52.888Z,96880.44
2018-12-30T09:26:22.389Z,96879.00
2018-12-30T09:28:51.938Z,96880.74
2018-12-30T09:31:21.536Z,96880.06
2018-12-30T09:33:50.979Z,96887.23
2018-12-30T09:36:20.861Z,96890.62
2018-12-30T09:38:50.670Z,96882.50
2018-12-30T09:41:20.790Z,96886.50
2018-12-30T09:43:50.603Z,96883.52
2018-12-30T09:46:20.415Z,96881.91
2018-12-30T09:48:49.851Z,96901.97
2018-12-30T09:51:19.342Z,96902.64
2018-12-30T09:53:48.825Z,96919.33
2018-12-30T09:56:18.304Z,96924.05
2018-12-30T09:58:47.779Z,96920.27
2018-12-30T10:01:17.261Z,96921.58
2018-12-30T10:03:46.719Z,96925.25
2018-12-30T10:06:16.164Z,96940.67
2018-12-30T10:08:45.628Z,96939.73
2018-12-30T10:11:17.844Z,96945.96
2018-12-30T10:13:47.332Z,96932.39
2018-12-30T10:16:16.885Z,96916.78
2018-12-30T10:18:46.831Z,96931.43
2018-12-30T10:21:16.851Z,96931.98
2018-12-30T10:23:52.893Z,96922.27
2018-12-30T10:26:17.564Z,96933.25
2018-12-30T10:28:47.017Z,96943.48
2018-12-30T10:31:16.481Z,96946.36
2018-12-30T10:33:45.982Z,96947.45
2018-12-30T10:36:15.430Z,96943.53
2018-12-30T10:38:44.898Z,96951.09
2018-12-30T10:41:14.319Z,96950.30
2018-12-30T10:43:43.824Z,96955.74
2018-12-30T10:46:13.272Z,96957.66
2018-12-30T10:48:42.717Z,96961.70
2018-12-30T10:51:12.141Z,96962.13
2018-12-30T10:53:41.618Z,96966.51
2018-12-30T10:56:11.045Z,96962.31
2018-12-30T10:58:40.469Z,96963.94
2018-12-30T11:01:09.898Z,96980.11
2018-12-30T11:03:39.344Z,96971.23
2018-12-30T11:06:08.776Z,96982.06
2018-12-30T11:08:38.208Z,96988.59
2018-12-30T11:11:07.626Z,96978.92
2018-12-30T11:13:37.057Z,96977.13
2018-12-30T11:16:06.480Z,96981.36
2018-12-30T11:18:35.945Z,96980.03
2018-12-30T11:21:05.375Z,96998.16
2018-12-30T11:23:34.834Z,96979.54
2018-12-30T11:26:04.265Z,96979.95
2018-12-30T11:28:33.748Z,96970.62
2018-12-30T11:31:03.234Z,96967.75
2018-12-30T11:33:32.705Z,96965.30
2018-12-30T11:36:02.139Z,96976.78
2018-12-30T11:38:31.596Z,96960.55
2018-12-30T11:41:01.024Z,96969.08
2018-12-30T11:43:30.484Z,96968.02
2018-12-30T11:45:59.913Z,96966.58
2018-12-30T11:48:29.383Z,96968.24
2018-12-30T11:50:58.808Z,96961.52
2018-12-30T11:53:28.269Z,96968.52
2018-12-30T11:55:57.701Z,96965.94
2018-12-30T11:58:27.180Z,96970.24
2018-12-30T12:00:56.658Z,96967.72
2018-12-30T12:03:26.138Z,96980.91
2018-12-30T12:05:55.572Z,96981.66
2018-12-30T12:08:25.031Z,96985.96
2018-12-30T12:10:54.451Z,96989.74
2018-12-30T12:13:23.918Z,96976.70
2018-12-30T12:15:53.345Z,96978.67
2018-12-30T12:18:22.818Z,96980.98
2018-12-30T12:20:52.249Z,96973.07
2018-12-30T12:23:21.716Z,96972.52
2018-12-30T12:25:51.143Z,96974.92
2018-12-30T12:28:20.643Z,96982.64
2018-12-30T12:30:50.077Z,96988.11
2018-12-30T12:33:19.523Z,96990.08
2018-12-30T12:35:48.948Z,96977.35
2018-12-30T12:38:18.379Z,96976.17
2018-12-30T12:40:47.807Z,96976.41
2018-12-30T12:43:17.243Z,96977.01
2018-12-30T12:45:46.681Z,96983.39
2018-12-30T12:48:16.109Z,96988.23
2018-12-30T12:50:45.542Z,96982.59
2018-12-30T12:53:14.967Z,96987.13
2018-12-30T12:55:44.514Z,96992.88
2018-12-30T12:58:13.998Z,97004.25
2018-12-30T13:00:43.426Z,97005.16
2018-12-30T13:03:12.848Z,97013.20
2018-12-30T13:05:42.303Z,97012.27
2018-12-30T13:08:11.748Z,97004.85
2018-12-30T13:10:41.182Z,97005.80
2018-12-30T13:13:10.636Z,97008.03
2018-12-30T13:15:40.074Z,97009.95
2018-12-30T13:18:09.503Z,97012.86
2018-12-30T13:20:38.932Z,97010.52
2018-12-30T13:23:08.370Z,97006.36
2018-12-30T13:25:37.839Z,97017.81
2018-12-30T13:28:07.333Z,97023.41
2018-12-30T13:30:36.802Z,97014.83
2018-12-30T13:33:06.228Z,97013.27
2018-12-30T13:35:43.167Z,97022.92
2018-12-30T13:38:06.857Z,97031.91
2018-12-30T13:40:36.335Z,97024.52
2018-12-30T13:43:05.785Z,97024.27
2018-12-30T13:45:35.244Z,97026.95
2018-12-30T13:48:04.678Z,97029.26
2018-12-30T13:50:34.158Z,97032.88
2018-12-30T13:53:03.589Z,97041.42
2018-12-30T13:55:33.067Z,97036.09
2018-12-30T13:58:02.487Z,97034.68
2018-12-30T14:00:32.867Z,97034.83
2018-12-30T14:03:02.294Z,97044.16
2018-12-30T14:05:31.752Z,97042.03
2018-12-30T14:08:01.189Z,97045.52
2018-12-30T14:10:30.655Z,97057.84
2018-12-30T14:13:00.084Z,97054.92
2018-12-30T14:15:29.601Z,97062.83
2018-12-30T14:17:59.009Z,97056.55
2018-12-30T14:20:28.465Z,97062.41
2018-12-30T14:22:57.923Z,97067.81
2018-12-30T14:25:29.283Z,97078.66
2018-12-30T14:27:58.713Z,97071.66
2018-12-30T14:30:28.185Z,97080.55
2018-12-30T14:32:57.619Z,97088.63
2018-12-30T14:35:27.085Z,97075.25
2018-12-30T14:37:56.513Z,97096.77
2018-12-30T14:40:25.988Z,97082.97
2018-12-30T14:42:55.419Z,97084.34
2018-12-30T14:45:24.903Z,97074.77
2018-12-30T14:47:54.331Z,97068.45
2018-12-30T14:50:23.763Z,97087.31
2018-12-30T14:52:53.202Z,97075.10
2018-12-30T14:55:22.633Z,97074.50
2018-12-30T14:57:52.054Z,97083.38
2018-12-30T15:00:21.494Z,97074.80
2018-12-30T15:02:50.923Z,97077.41
2018-12-30T15:05:20.352Z,97077.22
2018-12-30T15:07:49.778Z,97081.68
2018-12-30T15:10:19.222Z,97079.38
2018-12-30T15:12:48.654Z,97093.12
2018-12-30T15:15:18.084Z,97085.03
2018-12-30T15:17:47.524Z,97081.78
2018-12-30T15:20:16.957Z,97083.75
2018-12-30T15:22:46.396Z,97077.10
2018-12-30T15:25:15.834Z,97079.75
2018-12-30T15:27:45.267Z,97090.78
2018-12-30T15:30:14.689Z,97090.94
2018-12-30T15:32:44.119Z,97098.13
2018-12-30T15:35:13.542Z,97099.52
2018-12-30T15:37:42.976Z,97096.99
2018-12-30T15:40:12.463Z,97096.05
2018-12-30T15:42:41.901Z,97081.67
2018-12-30T15:45:11.322Z,97086.56
2018-12-30T15:47:40.763Z,97083.61
2018-12-30T15:50:10.187Z,97084.59
2018-12-30T15:52:39.637Z,97094.30
2018-12-30T15:55:09.140Z,97078.12
2018-12-30T15:57:38.599Z,97077.06
2018-12-30T16:00:10.018Z,97081.19
2018-12-30T16:02:39.642Z,97084.88
2018-12-30T16:05:09.063Z,97070.91
2018-12-30T16:07:38.498Z,97078.80
2018-12-30T16:10:09.172Z,97071.32
2018-12-30T16:12:38.601Z,97073.50
2018-12-30T16:15:08.672Z,97050.77
2018-12-30T16:17:38.149Z,97065.69
2018-12-30T16:20:08.704Z,97059.34
2018-12-30T16:22:38.163Z,97059.04
2018-12-30T16:25:07.591Z,97059.45
2018-12-30T16:27:37.022Z,97059.94
2018-12-30T16:30:09.352Z,97058.01
2018-12-30T16:32:38.796Z,97054.99
2018-12-30T16:35:08.229Z,97060.28
2018-12-30T16:37:37.866Z,97067.84
2018-12-30T16:40:07.580Z,97071.56
2018-12-30T16:42:38.867Z,97081.50
2018-12-30T16:45:08.335Z,97084.30
2018-12-30T16:47:41.777Z,97076.18
2018-12-30T16:50:09.256Z,97069.78
2018-12-30T16:52:38.758Z,97071.84
2018-12-30T16:55:08.206Z,97073.66
2018-12-30T16:57:37.648Z,97074.77
2018-12-30T17:00:09.750Z,97065.63
2018-12-30T17:02:39.190Z,97059.09
2018-12-30T17:05:09.621Z,97068.31
2018-12-30T17:07:39.054Z,97073.91
2018-12-30T17:10:10.028Z,97082.17
2018-12-30T17:12:39.457Z,97073.91
2018-12-30T17:15:09.754Z,97077.62
2018-12-30T17:17:39.258Z,97082.23
2018-12-30T17:20:08.699Z,97076.59
2018-12-30T17:22:38.142Z,97081.72
2018-12-30T17:25:08.136Z,97075.94
2018-12-30T17:27:37.567Z,97076.86
2018-12-30T17:30:09.896Z,97075.72
2018-12-30T17:32:39.381Z,97084.52
2018-12-30T17:35:08.865Z,97076.55
2018-12-30T17:37:38.330Z,97077.91
2018-12-30T17:40:08.343Z,97087.16
2018-12-30T17:42:37.806Z,97081.95
2018-12-30T17:45:08.067Z,97084.69
2018-12-30T17:47:38.508Z,97093.53
2018-12-30T17:50:09.887Z,97098.83
2018-12-30T17:52:39.360Z,97091.80
2018-12-30T17:55:08.897Z,97100.43
2018-12-30T17:57:38.378Z,97098.16
2018-12-30T18:00:09.644Z,97092.55
2018-12-30T18:02:39.165Z,97089.26
2018-12-30T18:05:08.859Z,97099.55
2018-12-30T18:07:38.330Z,97107.71
2018-12-30T18:10:08.022Z,97099.80
2018-12-30T18:12:37.516Z,97112.84
2018-12-30T18:15:08.264Z,97095.06
2018-12-30T18:17:41.678Z,97109.03
2018-12-30T18:20:09.075Z,97112.53
2018-12-30T18:22:38.535Z,97102.09
2018-12-30T18:25:08.030Z,97104.70
2018-12-30T18:27:37.510Z,97102.17
2018-12-30T18:30:08.688Z,97113.67
2018-12-30T18:32:38.117Z,97112.33
2018-12-30T18:35:07.699Z,97122.25
2018-12-30T18:37:37.122Z,97127.34
2018-12-30T18:40:09.025Z,97118.14
2018-12-30T18:42:41.305Z,97109.23
2018-12-30T18:45:13.056Z,97103.35
2018-12-30T18:47:45.567Z,97093.89
2018-12-30T18:50:15.000Z,97094.08
2018-12-30T18:52:44.414Z,97106.59
2018-12-30T18:55:13.842Z,97097.84
2018-12-30T18:57:43.270Z,97109.45
2018-12-30T19:00:12.698Z,97107.73
2018-12-30T19:02:42.134Z,97111.34
2018-12-30T19:05:11.566Z,97112.86
2018-12-30T19:07:40.996Z,97116.98
2018-12-30T19:10:10.433Z,97122.41
2018-12-30T19:12:39.858Z,97139.45
2018-12-30T19:15:09.330Z,97136.45
2018-12-30T19:17:38.762Z,97126.89
2018-12-30T19:20:08.244Z,97121.94
2018-12-30T19:22:37.681Z,97123.55
2018-12-30T19:25:07.322Z,97113.91
2018-12-30T19:27:36.747Z,97107.66
2018-12-30T19:30:09.691Z,97113.57
2018-12-30T19:32:39.089Z,97116.53
2018-12-30T19:35:08.550Z,97122.13
2018-12-30T19:37:37.998Z,97127.59
2018-12-30T19:40:10.677Z,97138.61
2018-12-30T19:42:40.116Z,97126.03
2018-12-30T19:45:10.558Z,97126.73
2018-12-30T19:47:39.969Z,97119.11
2018-12-30T19:50:09.396Z,97114.80
2018-12-30T19:52:38.824Z,97121.70
2018-12-30T19:55:08.276Z,97111.83
2018-12-30T19:57:37.704Z,97114.66
2018-12-30T20:00:10.246Z,97119.91
2018-12-30T20:02:39.669Z,97133.42
2018-12-30T20:05:09.160Z,97135.11
2018-12-30T20:07:38.582Z,97133.91
2018-12-30T20:10:08.799Z,97126.13
2018-12-30T20:12:38.227Z,97124.66
2018-12-30T20:15:08.690Z,97126.65
2018-12-30T20:17:38.119Z,97137.13
2018-12-30T20:20:07.994Z,97120.49
2018-12-30T20:22:37.416Z,97119.14
2018-12-30T20:25:06.857Z,97114.92
2018-12-30T20:27:36.305Z,97097.36
2018-12-30T20:30:08.740Z,97091.38
2018-12-30T20:32:38.172Z,97096.48
2018-12-30T20:35:07.604Z,97089.83
2018-12-30T20:37:38.019Z,97087.80
2018-12-30T20:40:07.571Z,97079.22
2018-12-30T20:42:36.999Z,97069.33
2018-12-30T20:45:07.296Z,97066.68
2018-12-30T20:47:36.720Z,97078.86
2018-12-30T20:50:07.387Z,97077.04
2018-12-30T20:52:36.804Z,97072.43
2018-12-30T20:55:06.715Z,97073.01
2018-12-30T20:57:36.177Z,97081.37
2018-12-30T21:00:08.786Z,97069.50
2018-12-30T21:02:38.362Z,97067.69
2018-12-30T21:05:08.167Z,97072.67
2018-12-30T21:07:37.916Z,97071.81
2018-12-30T21:10:08.350Z,97067.66
2018-12-30T21:12:37.778Z,97075.53
2018-12-30T21:15:07.985Z,97064.98
2018-12-30T21:17:37.405Z,97064.66
2018-12-30T21:20:06.951Z,97062.56
2018-12-30T21:22:36.420Z,97057.85
2018-12-30T21:25:06.330Z,97058.83
2018-12-30T21:27:35.836Z,97050.35
2018-12-30T21:30:07.714Z,97063.20
2018-12-30T21:32:37.150Z,97066.19
2018-12-30T21:35:07.463Z,97070.80
2018-12-30T21:37:36.897Z,97079.01
2018-12-30T21:40:07.818Z,97073.23
2018-12-30T21:42:43.675Z,97077.38
2018-12-30T21:45:08.716Z,97085.44
2018-12-30T21:47:38.134Z,97090.72
2018-12-30T21:50:08.697Z,97086.30
2018-12-30T21:52:38.123Z,97090.53
2018-12-30T21:55:07.821Z,97091.98
2018-12-30T21:57:39.836Z,97087.98
2018-12-30T22:00:11.171Z,97083.06
2018-12-30T22:02:59.942Z,97076.30
2018-12-30T22:05:48.807Z,97037.09
2018-12-30T22:08:37.570Z,97012.56
2018-12-30T22:11:26.344Z,97056.71
2018-12-30T22:14:07.825Z,97075.47
2018-12-30T22:16:56.679Z,97081.43
2018-12-30T22:19:45.408Z,97090.53
2018-12-30T22:22:34.209Z,97087.34
2018-12-30T22:25:23.045Z,97090.94
2018-12-30T22:28:11.793Z,97085.52
2018-12-30T22:31:00.605Z,97082.87
2018-12-30T22:33:49.372Z,97011.66
2018-12-30T22:36:38.164Z,97071.84
2018-12-30T22:39:27.011Z,97087.70
2018-12-30T22:42:15.784Z,97084.59
2018-12-30T22:48:33.428Z,97083.80
2018-12-30T22:51:22.230Z,97057.38
2018-12-30T22:54:11.026Z,97085.79
2018-12-30T22:56:59.812Z,97088.87
2018-12-30T22:59:48.578Z,97081.45
2018-12-30T23:02:37.364Z,97101.05
2018-12-30T23:05:26.176Z,97098.61
2018-12-30T23:08:14.986Z,97071.32
2018-12-30T23:11:03.792Z,97042.15
2018-12-30T23:13:45.231Z,97094.37
2018-12-30T23:16:33.991Z,97054.03
2018-12-30T23:19:22.766Z,97087.76
2018-12-30T23:22:11.558Z,97047.56
2018-12-30T23:25:00.335Z,97072.23
2018-12-30T23:27:29.766Z,97057.54
2018-12-30T23:29:59.192Z,97044.02
2018-12-30T23:32:48.019Z,97046.01
2018-12-30T23:35:17.566Z,97039.14
2018-12-30T23:37:47.040Z,97061.32
2018-12-30T23:40:16.531Z,97056.22
2018-12-30T23:42:45.997Z,97060.20
2018-12-30T23:45:15.512Z,97061.32
2018-12-30T23:47:44.982Z,97062.02
2018-12-30T23:50:14.458Z,97058.89
2018-12-30T23:52:43.921Z,97057.26
2018-12-30T23:55:13.459Z,97063.38
2018-12-30T23:57:42.928Z,97056.22
